Time;durP1;ratioP1;P1;durP2;ratioP2;P2;SDS_P1;SDS_P2;PMS_P1;PMS_P2;Temp;Humidity;BMP_temperature;BMP_pressure;BME280_temperature;BME280_humidity;BME280_pressure;Samples;Min_cycle;Max_cycle;Signal;HPM_P1;HPM_P2
2022/06/04 00:00:28;;;;;;;8.00;5.15;;;;;;;;;;5031981;28;20034;-45
2022/06/04 00:02:54;;;;;;;7.60;5.38;;;;;;;;;;5033172;28;20026;-45
2022/06/04 00:05:23;;;;;;;5.00;4.50;;;;;;;;;;5033187;28;20087;-46
2022/06/04 00:07:50;;;;;;;5.00;4.30;;;;;;;;;;5033500;28;20029;-44
2022/06/04 00:15:49;;;;;;;6.68;4.45;;;;;;;;;;5033359;28;20036;-45
2022/06/04 00:18:15;;;;;;;5.40;4.90;;;;;;;;;;5032635;28;20049;-44
2022/06/04 00:20:41;;;;;;;9.02;5.03;;;;;;;;;;5032944;28;20124;-44
2022/06/04 00:23:08;;;;;;;7.88;6.03;;;;;;;;;;5032864;28;20109;-58
2022/06/04 00:25:35;;;;;;;7.53;5.88;;;;;;;;;;5032375;28;20494;-45
2022/06/04 00:28:03;;;;;;;5.10;4.57;;;;;;;;;;5032918;28;20402;-47
2022/06/04 00:30:29;;;;;;;5.40;4.40;;;;;;;;;;5033026;28;20063;-46
2022/06/04 00:32:54;;;;;;;7.65;5.38;;;;;;;;;;5032527;28;20049;-53
2022/06/04 00:35:20;;;;;;;5.57;4.97;;;;;;;;;;5032713;28;20104;-52
2022/06/04 00:37:48;;;;;;;7.93;5.95;;;;;;;;;;5032774;28;20028;-56
2022/06/04 00:40:40;;;;;;;6.63;5.70;;;;;;;;;;5032540;28;20428;-57
2022/06/04 00:43:05;;;;;;;6.93;5.78;;;;;;;;;;5018356;28;20133;-53
2022/06/04 00:45:33;;;;;;;7.85;5.75;;;;;;;;;;5032504;28;20596;-46
2022/06/04 00:48:01;;;;;;;7.75;5.38;;;;;;;;;;5032351;28;20482;-54
2022/06/04 00:50:29;;;;;;;8.05;5.40;;;;;;;;;;5032324;28;20035;-53
2022/06/04 00:52:57;;;;;;;5.63;5.03;;;;;;;;;;5032586;28;20414;-52
2022/06/04 00:55:24;;;;;;;6.30;5.40;;;;;;;;;;5032240;28;20491;-49
2022/06/04 00:58:06;;;;;;;6.00;5.40;;;;;;;;;;5032615;28;20037;-55
2022/06/04 01:00:58;;;;;;;6.22;4.88;;;;;;;;;;5032585;28;20040;-46
2022/06/04 01:03:29;;;;;;;7.95;5.40;;;;;;;;;;5032576;28;20029;-46
2022/06/04 01:06:06;;;;;;;5.68;4.63;;;;;;;;;;5032667;28;20426;-46
2022/06/04 01:08:35;;;;;;;6.25;5.57;;;;;;;;;;5032326;28;20037;-46
2022/06/04 01:11:15;;;;;;;5.78;4.90;;;;;;;;;;5032253;28;20034;-47
2022/06/04 01:14:12;;;;;;;5.60;5.10;;;;;;;;;;5032262;28;20037;-49
2022/06/04 01:17:11;;;;;;;8.00;5.57;;;;;;;;;;5032310;28;20500;-45
2022/06/04 01:19:37;;;;;;;6.13;5.53;;;;;;;;;;5032292;28;20034;-46
2022/06/04 01:22:25;;;;;;;5.93;5.25;;;;;;;;;;5032424;28;20108;-45
2022/06/04 01:25:15;;;;;;;5.35;4.85;;;;;;;;;;5019021;28;20045;-50
2022/06/04 01:28:00;;;;;;;5.53;5.03;;;;;;;;;;5032201;28;20068;-47
2022/06/04 01:30:34;;;;;;;10.30;5.43;;;;;;;;;;5036455;28;20026;-45
2022/06/04 01:33:16;;;;;;;5.22;4.72;;;;;;;;;;5035892;28;20043;-48
2022/06/04 01:35:50;;;;;;;6.35;5.15;;;;;;;;;;5036167;28;20477;-45
2022/06/04 01:38:33;;;;;;;5.13;4.63;;;;;;;;;;5036341;28;20112;-46
2022/06/04 01:41:07;;;;;;;5.68;5.07;;;;;;;;;;5035970;28;20084;-46
2022/06/04 01:43:50;;;;;;;6.22;5.35;;;;;;;;;;5035889;28;20084;-46
2022/06/04 01:46:33;;;;;;;7.13;5.60;;;;;;;;;;5035914;28;20025;-48
2022/06/04 01:49:26;;;;;;;5.75;5.13;;;;;;;;;;5035863;28;20025;-49
2022/06/04 01:51:56;;;;;;;5.85;5.22;;;;;;;;;;5035697;28;20033;-46
2022/06/04 01:54:32;;;;;;;6.43;5.25;;;;;;;;;;5017940;28;20036;-46
2022/06/04 01:57:04;;;;;;;5.53;4.95;;;;;;;;;;5036042;28;20037;-46
2022/06/04 01:59:42;;;;;;;5.57;5.07;;;;;;;;;;5035688;28;20550;-46
2022/06/04 02:02:13;;;;;;;6.15;5.10;;;;;;;;;;5035643;28;20116;-50
2022/06/04 02:04:47;;;;;;;6.70;5.85;;;;;;;;;;5035635;28;20025;-46
2022/06/04 02:07:31;;;;;;;5.70;5.05;;;;;;;;;;5035409;28;20060;-45
2022/06/04 02:09:59;;;;;;;6.97;6.03;;;;;;;;;;5035746;28;20075;-47
2022/06/04 02:12:25;;;;;;;5.82;5.22;;;;;;;;;;5035375;28;20021;-47
2022/06/04 02:14:50;;;;;;;7.68;5.70;;;;;;;;;;5035281;28;20063;-46
2022/06/04 02:17:23;;;;;;;6.03;5.40;;;;;;;;;;5035222;28;20034;-46
2022/06/04 02:19:49;;;;;;;7.10;5.47;;;;;;;;;;5035239;28;20026;-46
2022/06/04 02:22:14;;;;;;;7.63;5.53;;;;;;;;;;5035218;28;20127;-52
2022/06/04 02:24:41;;;;;;;9.07;5.88;;;;;;;;;;5035350;28;20029;-47
2022/06/04 02:27:08;;;;;;;8.77;6.45;;;;;;;;;;5035414;28;20109;-50
2022/06/04 02:29:34;;;;;;;6.45;5.38;;;;;;;;;;5035042;28;20101;-48
2022/06/04 02:32:20;;;;;;;6.10;5.50;;;;;;;;;;5034971;28;20047;-47
2022/06/04 02:35:06;;;;;;;7.90;5.70;;;;;;;;;;5034220;28;20073;-46
2022/06/04 02:37:31;;;;;;;6.70;5.68;;;;;;;;;;5035033;28;20033;-47
2022/06/04 02:40:09;;;;;;;6.70;6.00;;;;;;;;;;5034168;28;20109;-47
2022/06/04 02:42:59;;;;;;;6.30;5.57;;;;;;;;;;5035138;28;20032;-46
2022/06/04 02:45:36;;;;;;;6.40;5.80;;;;;;;;;;5034752;28;20492;-47
2022/06/04 02:48:30;;;;;;;6.57;5.90;;;;;;;;;;5034807;28;20042;-48
2022/06/04 02:50:58;;;;;;;8.02;5.75;;;;;;;;;;5034996;28;20083;-45
2022/06/04 02:53:27;;;;;;;10.60;6.22;;;;;;;;;;5034521;28;20022;-55
2022/06/04 02:55:58;;;;;;;7.05;6.40;;;;;;;;;;5034916;28;20032;-46
2022/06/04 02:58:25;;;;;;;9.82;6.75;;;;;;;;;;5034613;28;20013;-46
2022/06/04 03:00:54;;;;;;;6.90;6.18;;;;;;;;;;5034579;28;20033;-46
2022/06/04 03:03:21;;;;;;;7.45;6.38;;;;;;;;;;5034555;28;20473;-48
2022/06/04 03:05:59;;;;;;;6.10;5.47;;;;;;;;;;5034462;28;20409;-45
2022/06/04 03:08:32;;;;;;;6.15;5.53;;;;;;;;;;5034857;28;20112;-45
2022/06/04 03:10:58;;;;;;;9.45;6.22;;;;;;;;;;5034419;28;20017;-45
2022/06/04 03:13:24;;;;;;;7.07;6.15;;;;;;;;;;5034602;28;20380;-46
2022/06/04 03:15:50;;;;;;;5.53;4.95;;;;;;;;;;5034414;28;20087;-46
2022/06/04 03:18:16;;;;;;;7.43;5.72;;;;;;;;;;5034266;28;20052;-49
2022/06/04 03:20:43;;;;;;;7.63;6.05;;;;;;;;;;5034501;28;20026;-48
2022/06/04 03:23:09;;;;;;;6.78;5.70;;;;;;;;;;5034160;28;20029;-47
2022/06/04 03:25:36;;;;;;;7.88;4.38;;;;;;;;;;5034176;28;20104;-46
2022/06/04 03:28:02;;;;;;;6.68;5.40;;;;;;;;;;5034431;28;20025;-45
2022/06/04 03:30:28;;;;;;;9.70;4.72;;;;;;;;;;5034146;28;20021;-47
2022/06/04 03:32:54;;;;;;;7.55;5.60;;;;;;;;;;5033737;28;20049;-46
2022/06/04 03:35:21;;;;;;;5.90;5.30;;;;;;;;;;5033858;28;20116;-46
2022/06/04 03:37:46;;;;;;;9.45;5.25;;;;;;;;;;5033918;28;20029;-45
2022/06/04 03:40:13;;;;;;;5.13;4.57;;;;;;;;;;5033745;28;20025;-46
2022/06/04 03:42:39;;;;;;;5.35;4.03;;;;;;;;;;5033956;28;20029;-48
2022/06/04 03:45:06;;;;;;;5.22;4.72;;;;;;;;;;5033661;28;20048;-46
2022/06/04 03:47:37;;;;;;;5.03;4.28;;;;;;;;;;5033630;28;20030;-48
2022/06/04 03:50:06;;;;;;;4.13;3.80;;;;;;;;;;5033878;28;20108;-49
2022/06/04 03:52:31;;;;;;;4.75;3.15;;;;;;;;;;5032587;28;20029;-47
2022/06/04 03:54:57;;;;;;;4.57;3.92;;;;;;;;;;5033835;28;20478;-49
2022/06/04 04:00:15;;;;;;;6.15;4.90;;;;;;;;;;5033795;28;20031;-47
2022/06/04 04:02:42;;;;;;;5.82;5.18;;;;;;;;;;5033790;28;20022;-46
2022/06/04 04:05:10;;;;;;;6.13;4.78;;;;;;;;;;5033493;28;20528;-46
2022/06/04 04:07:36;;;;;;;5.95;5.35;;;;;;;;;;5033650;28;20034;-47
2022/06/04 04:10:02;;;;;;;7.38;4.22;;;;;;;;;;5033450;28;20112;-46
2022/06/04 04:12:28;;;;;;;8.90;5.63;;;;;;;;;;5033361;28;20026;-46
2022/06/04 04:14:54;;;;;;;4.53;4.13;;;;;;;;;;5015333;28;20029;-45
2022/06/04 04:17:20;;;;;;;6.20;5.18;;;;;;;;;;5033118;28;20026;-48
2022/06/04 04:19:45;;;;;;;7.25;6.20;;;;;;;;;;5032956;28;20059;-46
2022/06/04 04:22:11;;;;;;;7.45;5.68;;;;;;;;;;5033227;28;20109;-45
2022/06/04 04:24:36;;;;;;;5.82;5.05;;;;;;;;;;5033195;28;20120;-52
2022/06/04 04:27:02;;;;;;;10.60;6.97;;;;;;;;;;5033126;28;20113;-45
2022/06/04 04:29:27;;;;;;;9.98;6.50;;;;;;;;;;5032808;28;20116;-47
2022/06/04 04:31:53;;;;;;;9.23;6.45;;;;;;;;;;5032581;28;20100;-47
2022/06/04 04:34:18;;;;;;;7.22;5.60;;;;;;;;;;5032685;28;20109;-47
2022/06/04 04:36:45;;;;;;;7.20;5.03;;;;;;;;;;5032697;28;20116;-45
2022/06/04 04:39:11;;;;;;;5.85;5.13;;;;;;;;;;5014971;28;20021;-46
2022/06/04 04:41:36;;;;;;;6.93;5.78;;;;;;;;;;5032972;28;20472;-45
2022/06/04 04:44:02;;;;;;;4.38;3.97;;;;;;;;;;5032650;28;20112;-46
2022/06/04 04:46:28;;;;;;;5.90;5.30;;;;;;;;;;5032556;28;20358;-48
2022/06/04 04:48:53;;;;;;;5.80;5.07;;;;;;;;;;5032519;28;20434;-46
2022/06/04 04:51:24;;;;;;;11.25;4.75;;;;;;;;;;5032826;28;20068;-47
2022/06/04 04:53:51;;;;;;;7.13;5.43;;;;;;;;;;5032446;28;20034;-46
2022/06/04 04:56:18;;;;;;;6.95;5.45;;;;;;;;;;5032463;28;20032;-46
2022/06/04 04:58:44;;;;;;;5.25;4.75;;;;;;;;;;5032358;28;20021;-47
2022/06/04 05:01:29;;;;;;;6.03;5.43;;;;;;;;;;5032679;28;20025;-45
2022/06/04 05:03:55;;;;;;;6.32;5.57;;;;;;;;;;5032195;28;20434;-46
2022/06/04 05:06:22;;;;;;;5.47;4.28;;;;;;;;;;5032553;28;20032;-46
2022/06/04 05:08:48;;;;;;;7.70;6.30;;;;;;;;;;5032516;28;20022;-47
2022/06/04 05:11:20;;;;;;;7.07;5.85;;;;;;;;;;5032505;28;20021;-52
2022/06/04 05:13:49;;;;;;;7.72;5.55;;;;;;;;;;5032163;28;20462;-45
2022/06/04 05:16:23;;;;;;;6.60;4.47;;;;;;;;;;5032134;28;20515;-49
2022/06/04 05:18:48;;;;;;;7.43;5.93;;;;;;;;;;5032230;28;20029;-49
2022/06/04 05:21:19;;;;;;;7.13;5.53;;;;;;;;;;5032227;28;20036;-46
2022/06/04 05:23:44;;;;;;;7.93;5.85;;;;;;;;;;5032493;28;20040;-47
2022/06/04 05:26:10;;;;;;;9.73;5.40;;;;;;;;;;5032525;28;20389;-45
2022/06/04 05:28:35;;;;;;;7.95;5.63;;;;;;;;;;5032178;28;20021;-46
2022/06/04 05:31:02;;;;;;;5.90;5.30;;;;;;;;;;5032101;28;20389;-47
2022/06/04 05:33:28;;;;;;;6.63;5.25;;;;;;;;;;5031859;28;20140;-49
2022/06/04 05:35:54;;;;;;;6.32;5.65;;;;;;;;;;5014867;28;20064;-46
2022/06/04 05:38:19;;;;;;;6.05;5.45;;;;;;;;;;5032059;28;20474;-47
2022/06/04 05:40:45;;;;;;;8.82;6.10;;;;;;;;;;5031979;28;20013;-47
2022/06/04 05:43:10;;;;;;;7.82;5.88;;;;;;;;;;5032128;28;20163;-46
2022/06/04 05:45:36;;;;;;;8.10;6.18;;;;;;;;;;5032336;28;20094;-47
2022/06/04 05:48:01;;;;;;;8.15;6.50;;;;;;;;;;5032236;28;20469;-46
2022/06/04 05:50:27;;;;;;;10.15;6.07;;;;;;;;;;5032081;28;20429;-48
2022/06/04 05:52:52;;;;;;;6.88;6.05;;;;;;;;;;5031958;28;20026;-46
2022/06/04 05:55:18;;;;;;;9.73;7.15;;;;;;;;;;5031858;28;20022;-49
2022/06/04 05:57:43;;;;;;;9.55;6.32;;;;;;;;;;5032216;28;20087;-46
2022/06/04 06:00:10;;;;;;;11.73;6.03;;;;;;;;;;5031903;28;20096;-53
2022/06/04 06:02:37;;;;;;;7.65;6.30;;;;;;;;;;5032128;28;20087;-46
2022/06/04 06:05:03;;;;;;;7.15;6.13;;;;;;;;;;5032171;28;20035;-49
2022/06/04 06:07:30;;;;;;;11.02;6.65;;;;;;;;;;5031708;28;20033;-49
2022/06/04 06:09:55;;;;;;;7.55;6.60;;;;;;;;;;5032082;28;20029;-47
2022/06/04 06:12:20;;;;;;;10.07;7.18;;;;;;;;;;5031822;28;20033;-57
2022/06/04 06:14:46;;;;;;;10.63;5.82;;;;;;;;;;5031810;28;20083;-57
2022/06/04 06:17:12;;;;;;;8.25;4.80;;;;;;;;;;5035629;28;20025;-56
2022/06/04 06:19:37;;;;;;;7.15;4.63;;;;;;;;;;5035554;28;20036;-56
2022/06/04 06:22:04;;;;;;;4.90;4.40;;;;;;;;;;5035217;28;20064;-56
2022/06/04 06:24:30;;;;;;;5.22;4.45;;;;;;;;;;5035505;28;20030;-55
2022/06/04 06:26:57;;;;;;;6.85;4.80;;;;;;;;;;5034993;28;20539;-47
2022/06/04 06:29:28;;;;;;;5.65;4.60;;;;;;;;;;5035032;28;20084;-56
2022/06/04 06:31:55;;;;;;;7.45;4.60;;;;;;;;;;5035114;28;20132;-48
2022/06/04 06:34:22;;;;;;;9.02;4.55;;;;;;;;;;5035121;28;20385;-49
2022/06/04 06:36:48;;;;;;;5.60;4.43;;;;;;;;;;5035115;28;20049;-46
2022/06/04 06:39:14;;;;;;;9.93;4.78;;;;;;;;;;5034638;28;20456;-50
2022/06/04 06:41:40;;;;;;;6.60;4.65;;;;;;;;;;5035063;28;20473;-54
2022/06/04 06:44:06;;;;;;;5.43;4.65;;;;;;;;;;5035157;28;20021;-47
2022/06/04 06:46:36;;;;;;;5.35;4.85;;;;;;;;;;5035023;28;20095;-46
2022/06/04 06:49:06;;;;;;;8.33;4.67;;;;;;;;;;5034970;28;20040;-48
2022/06/04 06:51:36;;;;;;;;;;;;;;;;;;5034901;28;20064;-47
2022/06/04 06:54:01;;;;;;;7.60;5.18;;;;;;;;;;5033962;28;20007;-46
2022/06/04 06:56:30;;;;;;;6.22;5.10;;;;;;;;;;5033764;28;20160;-47
2022/06/04 06:58:57;;;;;;;9.15;5.88;;;;;;;;;;5034753;28;20033;-50
2022/06/04 07:01:25;;;;;;;5.60;4.93;;;;;;;;;;5034792;28;20026;-47
2022/06/04 07:03:51;;;;;;;8.60;6.88;;;;;;;;;;5017059;28;20524;-46
2022/06/04 07:06:28;;;;;;;6.30;5.35;;;;;;;;;;5032901;28;20025;-46
2022/06/04 07:08:54;;;;;;;9.57;6.13;;;;;;;;;;5015062;28;20092;-46
2022/06/04 07:11:19;;;;;;;3.28;2.78;;;;;;;;;;5032331;28;20029;-48
2022/06/04 07:13:45;;;;;;;4.25;3.13;;;;;;;;;;5032447;28;20025;-46
2022/06/04 07:16:10;;;;;;;5.45;4.20;;;;;;;;;;5032877;28;20069;-46
2022/06/04 07:18:36;;;;;;;5.68;4.78;;;;;;;;;;5032397;28;20470;-50
2022/06/04 07:21:04;;;;;;;4.35;3.72;;;;;;;;;;5033738;28;20029;-45
2022/06/04 07:23:33;;;;;;;7.35;6.18;;;;;;;;;;5033967;28;20028;-46
2022/06/04 07:26:00;;;;;;;4.57;4.13;;;;;;;;;;5033842;28;20061;-51
2022/06/04 07:28:25;;;;;;;5.15;4.63;;;;;;;;;;5033906;28;20021;-47
2022/06/04 07:30:50;;;;;;;7.68;6.72;;;;;;;;;;5033899;28;20083;-46
2022/06/04 07:33:16;;;;;;;7.32;6.30;;;;;;;;;;5017445;28;20041;-46
2022/06/04 07:35:47;;;;;;;7.95;6.72;;;;;;;;;;5014001;28;20041;-45
2022/06/04 07:38:12;;;;;;;10.15;7.90;;;;;;;;;;5014085;28;20386;-46
2022/06/04 07:40:38;;;;;;;7.18;6.40;;;;;;;;;;5013952;28;20084;-45
2022/06/04 07:43:04;;;;;;;5.75;4.72;;;;;;;;;;5012107;28;20505;-45
2022/06/04 07:45:30;;;;;;;5.35;4.18;;;;;;;;;;5013596;28;20064;-46
2022/06/04 07:47:55;;;;;;;6.15;5.20;;;;;;;;;;5013668;28;20382;-45
2022/06/04 07:50:21;;;;;;;6.47;5.50;;;;;;;;;;5013729;28;20033;-45
2022/06/04 07:52:47;;;;;;;5.28;4.75;;;;;;;;;;5014010;28;20025;-47
2022/06/04 07:55:12;;;;;;;5.50;5.00;;;;;;;;;;5013716;28;20104;-46
2022/06/04 07:57:38;;;;;;;7.32;5.43;;;;;;;;;;5013927;28;20111;-48
2022/06/04 08:00:06;;;;;;;5.75;5.22;;;;;;;;;;5013915;28;20026;-57
2022/06/04 08:02:31;;;;;;;5.03;4.63;;;;;;;;;;5013449;28;20029;-46
2022/06/04 08:04:57;;;;;;;5.70;5.20;;;;;;;;;;5013761;28;20121;-45
2022/06/04 08:07:23;;;;;;;5.85;4.78;;;;;;;;;;5007397;28;20029;-51
2022/06/04 08:09:49;;;;;;;5.00;4.22;;;;;;;;;;5013673;28;20101;-46
2022/06/04 08:12:18;;;;;;;4.43;4.03;;;;;;;;;;5013654;28;20530;-46
2022/06/04 08:14:46;;;;;;;5.10;4.60;;;;;;;;;;5013565;28;20029;-47
2022/06/04 08:17:11;;;;;;;4.75;4.35;;;;;;;;;;5012517;28;20042;-47
2022/06/04 08:19:38;;;;;;;5.85;3.53;;;;;;;;;;4993496;28;20492;-50
2022/06/04 08:22:05;;;;;;;4.32;3.92;;;;;;;;;;4993365;28;20023;-46
2022/06/04 08:24:31;;;;;;;4.95;4.20;;;;;;;;;;4993871;28;20044;-46
2022/06/04 08:26:58;;;;;;;5.15;3.67;;;;;;;;;;4993502;28;20378;-47
2022/06/04 08:29:30;;;;;;;3.97;3.58;;;;;;;;;;4993846;28;20026;-45
2022/06/04 08:31:57;;;;;;;4.13;3.70;;;;;;;;;;4998676;28;20046;-46
2022/06/04 08:34:23;;;;;;;4.43;3.28;;;;;;;;;;5012780;28;20029;-45
2022/06/04 08:36:48;;;;;;;3.75;3.05;;;;;;;;;;5013299;28;20079;-46
2022/06/04 08:39:14;;;;;;;3.70;2.80;;;;;;;;;;5012453;28;20014;-46
2022/06/04 08:41:42;;;;;;;3.30;2.90;;;;;;;;;;5012859;28;20109;-46
2022/06/04 08:44:16;;;;;;;3.00;2.80;;;;;;;;;;5013031;28;20058;-45
2022/06/04 08:46:50;;;;;;;2.72;2.53;;;;;;;;;;5012643;28;20485;-51
2022/06/04 08:49:32;;;;;;;3.17;2.97;;;;;;;;;;4995172;28;20398;-49
2022/06/04 08:52:00;;;;;;;9.25;2.85;;;;;;;;;;5012938;28;20155;-48
2022/06/04 09:00:00;;;;;;;3.03;2.72;;;;;;;;;;5012205;28;20378;-46
2022/06/04 09:02:58;;;;;;;3.95;2.33;;;;;;;;;;5012952;28;20083;-48
2022/06/04 09:05:36;;;;;;;4.63;2.80;;;;;;;;;;5011890;28;20034;-44
2022/06/04 09:08:28;;;;;;;3.42;2.78;;;;;;;;;;5012562;28;20069;-48
2022/06/04 09:10:57;;;;;;;7.03;2.90;;;;;;;;;;5012773;28;20069;-45
2022/06/04 09:13:25;;;;;;;3.35;2.75;;;;;;;;;;5012336;28;20022;-44
2022/06/04 09:15:59;;;;;;;2.67;2.47;;;;;;;;;;5012569;28;20517;-46
2022/06/04 09:18:35;;;;;;;2.95;2.75;;;;;;;;;;5012777;28;20488;-45
2022/06/04 09:21:03;;;;;;;10.27;5.05;;;;;;;;;;5012470;28;20042;-50
2022/06/04 09:23:34;;;;;;;2.85;2.10;;;;;;;;;;5012335;28;20029;-45
2022/06/04 09:26:12;;;;;;;2.42;2.22;;;;;;;;;;5012427;28;20030;-47
2022/06/04 09:28:55;;;;;;;2.30;2.05;;;;;;;;;;5012249;28;20075;-45
2022/06/04 09:31:39;;;;;;;2.47;2.25;;;;;;;;;;5012160;28;20044;-44
2022/06/04 09:34:38;;;;;;;4.97;1.90;;;;;;;;;;5012552;28;20109;-46
2022/06/04 09:37:07;;;;;;;2.50;2.30;;;;;;;;;;5007332;28;20038;-46
2022/06/04 09:39:35;;;;;;;4.63;2.45;;;;;;;;;;5012203;28;20033;-52
2022/06/04 09:42:25;;;;;;;7.20;3.20;;;;;;;;;;5012610;28;20057;-44
2022/06/04 09:44:57;;;;;;;4.43;2.20;;;;;;;;;;5012004;28;20049;-45
2022/06/04 09:47:36;;;;;;;4.32;2.38;;;;;;;;;;5012433;28;20026;-43
2022/06/04 09:50:03;;;;;;;;;;;;;;;;;;5015169;28;20034;-45
2022/06/04 09:52:36;;;;;;;5.45;2.50;;;;;;;;;;5015932;28;19924;-46
2022/06/04 09:55:23;;;;;;;12.85;2.63;;;;;;;;;;5016212;28;20065;-45
2022/06/04 09:57:58;;;;;;;4.10;2.45;;;;;;;;;;5015704;28;20393;-46
2022/06/04 10:00:27;;;;;;;4.65;2.70;;;;;;;;;;5016007;28;20034;-48
2022/06/04 10:03:09;;;;;;;3.53;2.33;;;;;;;;;;5015997;28;20037;-47
2022/06/04 10:05:35;;;;;;;3.65;2.50;;;;;;;;;;5015674;28;20018;-45
2022/06/04 10:08:11;;;;;;;4.30;2.30;;;;;;;;;;5015564;28;20036;-44
2022/06/04 10:10:44;;;;;;;2.70;2.22;;;;;;;;;;5015682;28;20030;-44
2022/06/04 10:16:17;;;;;;;4.35;2.28;;;;;;;;;;5015671;28;20036;-50
2022/06/04 10:18:58;;;;;;;8.18;2.50;;;;;;;;;;5015627;28;20151;-51
2022/06/04 10:21:31;;;;;;;5.20;2.42;;;;;;;;;;5015798;28;20025;-50
2022/06/04 10:23:58;;;;;;;3.90;2.30;;;;;;;;;;5015672;28;20022;-44
2022/06/04 10:26:42;;;;;;;2.92;2.50;;;;;;;;;;5014329;28;20129;-47
2022/06/04 10:29:08;;;;;;;4.68;2.40;;;;;;;;;;5013746;28;20069;-45
2022/06/04 10:31:52;;;;;;;3.67;2.40;;;;;;;;;;5013452;28;20030;-47
2022/06/04 10:34:45;;;;;;;3.10;2.25;;;;;;;;;;5013841;28;20030;-45
2022/06/04 10:37:16;;;;;;;3.55;2.17;;;;;;;;;;5015350;28;20033;-49
2022/06/04 10:39:54;;;;;;;4.63;2.20;;;;;;;;;;5015125;28;20022;-47
2022/06/04 10:42:39;;;;;;;5.18;2.40;;;;;;;;;;5015100;28;20049;-46
2022/06/04 10:45:20;;;;;;;5.35;2.58;;;;;;;;;;5015090;28;20033;-46
2022/06/04 10:47:55;;;;;;;4.45;1.98;;;;;;;;;;5014944;28;20102;-46
2022/06/04 10:53:40;;;;;;;4.93;1.80;;;;;;;;;;5015134;28;20176;-46
2022/06/04 10:56:12;;;;;;;2.88;1.65;;;;;;;;;;5015066;28;20072;-45
2022/06/04 10:58:47;;;;;;;4.05;2.05;;;;;;;;;;5014827;28;20026;-47
2022/06/04 11:02:00;;;;;;;4.10;2.03;;;;;;;;;;5014444;28;20331;-45
2022/06/04 11:04:57;;;;;;;1.90;1.80;;;;;;;;;;4970768;28;20049;-45
2022/06/04 11:07:49;;;;;;;2.28;1.63;;;;;;;;;;5013337;28;20034;-48
2022/06/04 11:10:17;;;;;;;1.83;1.60;;;;;;;;;;5014569;28;20025;-46
2022/06/04 11:12:55;;;;;;;2.17;1.63;;;;;;;;;;5014759;28;20092;-49
2022/06/04 11:15:27;;;;;;;2.03;1.40;;;;;;;;;;5014868;28;20057;-49
2022/06/04 11:18:15;;;;;;;2.78;1.90;;;;;;;;;;5014617;28;20037;-47
2022/06/04 11:20:50;;;;;;;3.15;2.22;;;;;;;;;;5014707;28;20025;-49
2022/06/04 11:23:24;;;;;;;2.50;1.70;;;;;;;;;;5014623;28;20388;-48
2022/06/04 11:25:53;;;;;;;3.22;1.60;;;;;;;;;;5014252;28;20030;-48
2022/06/04 11:28:24;;;;;;;2.00;1.85;;;;;;;;;;5014538;28;20053;-47
2022/06/04 11:31:05;;;;;;;2.65;1.83;;;;;;;;;;5014240;28;20040;-48
2022/06/04 11:33:37;;;;;;;1.75;1.65;;;;;;;;;;5013282;28;20409;-46
2022/06/04 11:36:24;;;;;;;2.55;1.83;;;;;;;;;;5014293;28;20025;-49
2022/06/04 11:39:02;;;;;;;2.75;1.70;;;;;;;;;;5014461;28;20454;-48
2022/06/04 11:41:52;;;;;;;2.75;2.10;;;;;;;;;;5013932;28;20045;-51
2022/06/04 11:44:43;;;;;;;1.85;1.75;;;;;;;;;;5014249;28;20076;-45
2022/06/04 11:47:29;;;;;;;1.98;1.88;;;;;;;;;;5013890;28;20021;-45
2022/06/04 11:50:15;;;;;;;4.25;2.10;;;;;;;;;;5013904;28;20045;-48
2022/06/04 11:53:06;;;;;;;3.50;2.10;;;;;;;;;;5014141;28;20033;-47
2022/06/04 11:55:35;;;;;;;3.08;2.03;;;;;;;;;;5014004;28;20026;-48
2022/06/04 11:58:03;;;;;;;2.42;2.20;;;;;;;;;;5014074;28;20026;-46
2022/06/04 12:00:38;;;;;;;4.93;2.22;;;;;;;;;;5013875;28;20026;-50
2022/06/04 12:03:23;;;;;;;3.78;2.13;;;;;;;;;;5013610;28;20041;-52
2022/06/04 12:06:01;;;;;;;2.20;2.00;;;;;;;;;;5013538;28;20105;-51
2022/06/04 12:08:53;;;;;;;2.80;2.30;;;;;;;;;;5013566;28;20036;-51
2022/06/04 12:11:36;;;;;;;2.55;2.35;;;;;;;;;;5013814;28;20037;-47
2022/06/04 12:14:29;;;;;;;2.75;2.00;;;;;;;;;;5012461;28;20045;-47
2022/06/04 12:17:33;;;;;;;3.58;2.13;;;;;;;;;;5013312;28;20466;-47
2022/06/04 12:26:49;;;;;;;2.72;2.40;;;;;;;;;;4933720;29;20039;-45
2022/06/04 12:29:28;;;;;;;3.88;2.42;;;;;;;;;;5013496;28;20037;-46
2022/06/04 12:32:06;;;;;;;2.80;2.30;;;;;;;;;;5013203;28;20053;-45
2022/06/04 12:34:39;;;;;;;4.78;2.70;;;;;;;;;;5013022;28;20069;-46
2022/06/04 12:37:20;;;;;;;3.22;2.50;;;;;;;;;;5013038;28;20037;-45
2022/06/04 12:39:45;;;;;;;3.40;2.63;;;;;;;;;;5012950;28;20022;-49
2022/06/04 12:42:23;;;;;;;5.28;2.10;;;;;;;;;;5013041;28;20553;-50
2022/06/04 12:44:59;;;;;;;3.78;2.55;;;;;;;;;;5012880;28;20022;-47
2022/06/04 12:47:33;;;;;;;2.60;2.40;;;;;;;;;;5012905;28;20041;-46
2022/06/04 12:50:18;;;;;;;4.75;2.38;;;;;;;;;;5012531;28;20482;-45
2022/06/04 12:53:00;;;;;;;5.85;2.63;;;;;;;;;;5013124;28;20025;-53
2022/06/04 12:55:38;;;;;;;2.50;2.30;;;;;;;;;;5013064;28;20026;-52
2022/06/04 12:58:49;;;;;;;7.45;2.92;;;;;;;;;;5012641;28;20482;-45
2022/06/04 13:01:20;;;;;;;2.90;2.70;;;;;;;;;;5012902;28;20040;-48
2022/06/04 13:03:49;;;;;;;2.90;2.60;;;;;;;;;;5012657;28;20026;-46
2022/06/04 13:06:15;;;;;;;2.90;2.60;;;;;;;;;;5012680;28;20389;-42
2022/06/04 13:08:53;;;;;;;3.42;2.58;;;;;;;;;;5012443;28;20029;-43
2022/06/04 13:11:44;;;;;;;6.90;4.15;;;;;;;;;;5012557;28;20022;-48
2022/06/04 13:14:36;;;;;;;4.22;3.42;;;;;;;;;;5012614;28;20130;-43
2022/06/04 13:17:42;;;;;;;5.25;2.88;;;;;;;;;;5021218;28;20029;-49
2022/06/04 13:20:32;;;;;;;4.13;3.10;;;;;;;;;;5031937;28;20088;-46
2022/06/04 13:23:21;;;;;;;2.85;2.65;;;;;;;;;;5032271;28;20033;-43
2022/06/04 13:26:21;;;;;;;6.32;3.30;;;;;;;;;;5036069;28;20080;-45
2022/06/04 13:28:49;;;;;;;4.18;3.42;;;;;;;;;;5036643;28;20029;-47
2022/06/04 13:31:30;;;;;;;4.10;3.10;;;;;;;;;;5036421;28;20033;-45
2022/06/04 13:34:10;;;;;;;4.90;2.95;;;;;;;;;;5035969;28;20044;-47
2022/06/04 13:36:36;;;;;;;4.40;2.90;;;;;;;;;;5036418;28;20017;-48
2022/06/04 13:39:03;;;;;;;6.18;3.30;;;;;;;;;;5036147;28;20033;-42
2022/06/04 13:44:28;;;;;;;3.08;2.80;;;;;;;;;;5036365;28;20117;-48
2022/06/04 13:47:15;;;;;;;4.80;2.72;;;;;;;;;;5036225;28;20021;-46
2022/06/04 13:50:00;;;;;;;3.80;2.83;;;;;;;;;;5036107;28;20036;-50
2022/06/04 13:52:29;;;;;;;3.42;2.70;;;;;;;;;;5036083;28;20104;-57
2022/06/04 13:55:01;;;;;;;3.17;2.97;;;;;;;;;;5035142;28;20040;-58
2022/06/04 13:57:38;;;;;;;8.23;3.22;;;;;;;;;;5032838;28;20041;-45
2022/06/04 14:00:15;;;;;;;5.68;3.03;;;;;;;;;;5035588;28;20017;-58
2022/06/04 14:02:42;;;;;;;3.30;3.05;;;;;;;;;;5026111;28;20018;-43
2022/06/04 14:08:03;;;;;;;3.25;2.95;;;;;;;;;;5026213;28;20032;-47
2022/06/04 14:10:29;;;;;;;5.32;2.92;;;;;;;;;;5035550;28;20033;-53
2022/06/04 14:13:12;;;;;;;3.00;2.70;;;;;;;;;;5035514;28;20045;-48
2022/06/04 14:16:03;;;;;;;3.20;2.90;;;;;;;;;;5022080;28;20034;-46
2022/06/04 14:18:43;;;;;;;3.30;3.00;;;;;;;;;;5025100;28;20105;-47
2022/06/04 14:21:14;;;;;;;3.97;3.05;;;;;;;;;;5025212;28;20025;-50
2022/06/04 14:23:58;;;;;;;3.10;2.90;;;;;;;;;;5016256;28;20429;-57
2022/06/04 14:26:42;;;;;;;3.42;3.10;;;;;;;;;;5015772;28;20096;-57
2022/06/04 14:29:31;;;;;;;4.93;2.88;;;;;;;;;;5015399;28;20104;-52
2022/06/04 14:32:02;;;;;;;5.33;3.10;;;;;;;;;;5015125;28;20485;-57
2022/06/04 14:34:38;;;;;;;4.35;3.00;;;;;;;;;;5015206;28;20294;-56
2022/06/04 14:37:07;;;;;;;3.35;3.05;;;;;;;;;;5017550;28;20200;-57
2022/06/04 14:39:34;;;;;;;4.70;4.30;;;;;;;;;;5024087;28;20028;-55
2022/06/04 14:42:29;;;;;;;4.15;3.03;;;;;;;;;;5019336;28;20030;-57
2022/06/04 14:45:31;;;;;;;3.10;2.90;;;;;;;;;;5023048;28;20117;-55
2022/06/04 14:48:45;;;;;;;4.13;2.90;;;;;;;;;;5014958;28;20036;-49
2022/06/04 14:51:36;;;;;;;3.50;3.20;;;;;;;;;;4947047;29;20039;-54
2022/06/04 14:54:05;;;;;;;6.40;3.13;;;;;;;;;;4954220;29;20035;-55
2022/06/04 14:57:01;;;;;;;4.80;3.10;;;;;;;;;;5001584;28;20034;-58
2022/06/04 14:59:41;;;;;;;3.85;3.40;;;;;;;;;;5013183;28;20026;-51
2022/06/04 15:02:22;;;;;;;3.50;3.20;;;;;;;;;;5013305;28;20448;-49
2022/06/04 15:05:06;;;;;;;3.50;3.10;;;;;;;;;;5029797;28;20026;-54
2022/06/04 15:07:38;;;;;;;4.20;3.80;;;;;;;;;;5021868;28;20076;-47
2022/06/04 15:10:24;;;;;;;7.32;3.72;;;;;;;;;;5019825;28;20088;-56
2022/06/04 15:13:31;;;;;;;4.65;3.63;;;;;;;;;;5020990;28;20037;-53
2022/06/04 15:16:09;;;;;;;6.40;3.65;;;;;;;;;;5022546;28;20477;-55
2022/06/04 15:18:50;;;;;;;9.27;4.35;;;;;;;;;;5024024;28;20188;-44
2022/06/04 15:21:30;;;;;;;5.88;4.00;;;;;;;;;;5024211;28;20017;-56
2022/06/04 15:24:11;;;;;;;6.43;3.92;;;;;;;;;;5006162;28;20036;-55
2022/06/04 15:26:55;;;;;;;4.82;3.58;;;;;;;;;;5033862;28;20026;-54
2022/06/04 15:35:28;;;;;;;5.50;3.30;;;;;;;;;;4942657;29;19918;-49
2022/06/04 15:38:17;;;;;;;5.40;3.40;;;;;;;;;;5008132;28;20030;-54
2022/06/04 15:40:58;;;;;;;4.70;2.97;;;;;;;;;;4994389;28;20474;-55
2022/06/04 15:43:34;;;;;;;3.17;2.88;;;;;;;;;;5022401;28;20033;-51
2022/06/04 15:46:13;;;;;;;5.00;3.00;;;;;;;;;;5033654;28;20469;-45
2022/06/04 15:48:40;;;;;;;4.38;2.70;;;;;;;;;;5019945;28;20071;-45
2022/06/04 15:57:22;;;;;;;5.20;2.30;;;;;;;;;;4914864;29;20245;-48
2022/06/04 15:59:55;;;;;;;3.47;2.35;;;;;;;;;;5003807;28;20034;-46
2022/06/04 16:02:30;;;;;;;5.20;2.60;;;;;;;;;;5013509;28;20120;-46
2022/06/04 16:04:58;;;;;;;4.43;2.15;;;;;;;;;;5013433;28;20033;-50